Time;durP1;ratioP1;P1;durP2;ratioP2;P2;SDS_P1;SDS_P2;PMS_P1;PMS_P2;Temp;Humidity;BMP_temperature;BMP_pressure;BME280_temperature;BME280_humidity;BME280_pressure;Samples;Min_cycle;Max_cycle;Signal;HPM_P1;HPM_P2
2022/09/18 00:00:37;;;;;;;12.15;1.52;;;;;;;10.66;100.00;100045.44;5172282;28;20455;-74
2022/09/18 00:03:09;;;;;;;12.50;1.48;;;;;;;10.63;100.00;100042.09;5169654;28;20411;-74
2022/09/18 00:05:39;;;;;;;10.60;1.52;;;;;;;10.54;100.00;100045.13;5172293;28;20165;-74
2022/09/18 00:08:09;;;;;;;12.82;1.83;;;;;;;10.55;100.00;100050.28;5168318;28;20030;-73
2022/09/18 00:10:42;;;;;;;11.55;1.60;;;;;;;10.55;100.00;100050.28;5170728;28;20036;-74
2022/09/18 00:13:13;;;;;;;15.70;2.20;;;;;;;10.49;100.00;100040.09;5171249;28;20079;-74
2022/09/18 00:15:53;;;;;;;8.48;1.60;;;;;;;10.51;100.00;100046.09;5155217;28;20113;-73
2022/09/18 00:18:23;;;;;;;10.45;1.48;;;;;;;10.62;100.00;100040.41;5170659;28;20033;-73
2022/09/18 00:20:53;;;;;;;17.42;1.95;;;;;;;10.55;100.00;100042.44;5167237;28;20056;-73
2022/09/18 00:23:24;;;;;;;11.02;1.40;;;;;;;10.59;100.00;100046.63;5173383;28;20491;-73
2022/09/18 00:25:54;;;;;;;11.52;1.92;;;;;;;10.51;100.00;100042.66;5168039;28;20026;-73
2022/09/18 00:28:24;;;;;;;11.27;1.98;;;;;;;10.42;100.00;100048.28;5171143;28;20029;-73
2022/09/18 00:30:55;;;;;;;13.05;1.80;;;;;;;10.37;100.00;100035.41;5173596;28;20022;-73
2022/09/18 00:33:25;;;;;;;13.27;1.55;;;;;;;10.56;100.00;100043.31;5196142;22;20105;-78
2022/09/18 00:35:59;;;;;;;16.63;2.45;;;;;;;10.47;100.00;100038.47;5173486;28;20168;-79
2022/09/18 00:38:33;;;;;;;12.15;1.70;;;;;;;10.52;100.00;100046.97;5172785;28;20038;-79
2022/09/18 00:41:08;;;;;;;13.30;1.60;;;;;;;10.53;100.00;100046.06;5177153;28;20305;-80
2022/09/18 00:43:38;;;;;;;16.07;1.60;;;;;;;10.54;100.00;100052.97;5176725;28;20060;-79
2022/09/18 00:46:17;;;;;;;15.00;1.77;;;;;;;10.44;100.00;100062.97;5174297;28;20054;-77
2022/09/18 00:49:06;;;;;;;9.80;1.48;;;;;;;10.49;100.00;100055.78;5176962;28;20209;-79
2022/09/18 00:51:38;;;;;;;9.15;1.00;;;;;;;10.42;100.00;100064.81;5174087;28;20503;-78
2022/09/18 00:54:42;;;;;;;12.40;1.80;;;;;;;10.44;100.00;100056.88;5192091;28;20033;-79
2022/09/18 00:57:27;;;;;;;14.38;1.67;;;;;;;10.39;100.00;100058.84;5176026;28;20041;-79
2022/09/18 01:00:00;;;;;;;14.20;1.73;;;;;;;10.31;100.00;100066.19;5172809;28;20076;-79
2022/09/18 01:02:30;;;;;;;11.77;1.75;;;;;;;10.31;100.00;100072.25;5171740;28;20037;-79
2022/09/18 01:05:02;;;;;;;15.50;1.85;;;;;;;10.36;100.00;100069.44;5175813;28;20519;-78
2022/09/18 01:07:50;;;;;;;17.33;1.60;;;;;;;10.40;100.00;100071.00;5172205;28;20037;-79
2022/09/18 01:10:39;;;;;;;13.52;1.60;;;;;;;10.43;100.00;100070.88;5175660;28;20080;-80
2022/09/18 01:13:24;;;;;;;12.43;1.95;;;;;;;10.46;100.00;100079.44;5197097;28;20052;-79
2022/09/18 01:16:07;;;;;;;13.20;1.60;;;;;;;10.44;100.00;100083.00;5179648;28;20480;-79
2022/09/18 01:18:53;;;;;;;9.48;0.95;;;;;;;10.38;100.00;100078.88;5173284;28;20037;-79
2022/09/18 01:22:25;;;;;;;7.32;1.23;;;;;;;10.40;100.00;100084.06;5176959;28;20109;-79
2022/09/18 01:25:15;;;;;;;8.63;1.52;;;;;;;10.43;100.00;100083.94;5128473;28;20033;-79
2022/09/18 01:28:27;;;;;;;11.75;1.38;;;;;;;10.48;100.00;100074.97;5176182;28;20058;-78
2022/09/18 01:31:05;;;;;;;9.80;1.48;;;;;;;10.40;100.00;100073.63;5180171;28;20108;-79
2022/09/18 01:33:43;;;;;;;12.10;1.60;;;;;;;10.42;100.00;100070.03;5176749;28;20022;-79
2022/09/18 01:36:16;;;;;;;9.93;1.70;;;;;;;10.32;100.00;100073.94;5177072;28;20263;-79
2022/09/18 01:39:17;;;;;;;12.73;1.50;;;;;;;10.28;100.00;100071.50;5175480;28;20064;-78
2022/09/18 01:41:50;;;;;;;11.32;1.60;;;;;;;10.19;100.00;100067.53;5185566;28;20323;-79
2022/09/18 01:44:27;;;;;;;10.20;1.80;;;;;;;10.28;100.00;100066.28;5193441;28;20538;-79
2022/09/18 01:46:59;;;;;;;10.38;1.60;;;;;;;10.32;100.00;100079.16;5176742;28;20443;-79
2022/09/18 01:49:36;;;;;;;17.15;2.17;;;;;;;10.44;100.00;100083.88;5175111;28;20029;-79
2022/09/18 01:52:08;;;;;;;12.00;1.70;;;;;;;10.40;100.00;100084.94;5179309;28;20036;-78
2022/09/18 01:54:42;;;;;;;10.98;1.80;;;;;;;10.44;100.00;100077.78;5196308;28;20049;-79
2022/09/18 01:57:20;;;;;;;12.25;1.70;;;;;;;10.49;100.00;100086.31;5181467;28;20030;-77
2022/09/18 02:00:04;;;;;;;6.95;1.20;;;;;;;10.49;100.00;100081.06;5181247;28;20025;-79
2022/09/18 02:02:42;;;;;;;9.05;1.70;;;;;;;10.37;100.00;100090.25;5173259;28;20196;-79
2022/09/18 02:05:23;;;;;;;7.45;1.40;;;;;;;10.46;100.00;100091.63;5178284;28;20476;-76
2022/09/18 02:07:58;;;;;;;9.13;1.20;;;;;;;10.55;100.00;100096.47;5175736;28;20041;-79
2022/09/18 02:10:31;;;;;;;9.38;1.05;;;;;;;10.60;100.00;100091.88;5177381;28;20424;-79
2022/09/18 02:13:05;;;;;;;11.82;1.40;;;;;;;10.58;100.00;100084.13;5184528;28;20396;-79
2022/09/18 02:15:40;;;;;;;12.50;2.08;;;;;;;10.52;100.00;100091.38;5173376;28;20043;-78
2022/09/18 02:18:17;;;;;;;13.57;1.60;;;;;;;10.58;100.00;100081.53;5172199;28;20030;-79
2022/09/18 02:20:48;;;;;;;8.45;1.27;;;;;;;10.41;100.00;100088.38;5172519;28;20031;-78
2022/09/18 02:23:18;;;;;;;8.73;1.48;;;;;;;10.54;100.00;100089.56;5179471;28;20619;-78
2022/09/18 02:25:53;;;;;;;11.40;1.75;;;;;;;10.59;100.00;100083.22;5184704;28;20026;-79
2022/09/18 02:28:27;;;;;;;9.63;1.17;;;;;;;10.42;100.00;100092.69;5170211;28;20517;-78
2022/09/18 02:30:57;;;;;;;8.52;1.55;;;;;;;10.47;100.00;100080.25;5171318;28;20022;-79
2022/09/18 02:33:30;;;;;;;14.82;1.90;;;;;;;10.53;100.00;100080.84;5172083;28;20022;-79
2022/09/18 02:36:18;;;;;;;11.75;1.45;;;;;;;10.50;100.00;100080.97;5173614;28;20036;-79
2022/09/18 02:39:26;;;;;;;9.35;1.40;;;;;;;10.59;100.00;100078.00;5173568;28;20563;-79
2022/09/18 02:42:02;;;;;;;9.30;1.17;;;;;;;10.64;100.00;100076.03;5183552;28;20026;-79
2022/09/18 02:44:54;;;;;;;8.93;1.10;;;;;;;10.58;100.00;100080.66;5184829;28;20023;-79
2022/09/18 02:47:39;;;;;;;12.88;1.70;;;;;;;10.56;100.00;100083.34;5171306;28;20030;-79
2022/09/18 02:50:35;;;;;;;8.73;1.60;;;;;;;10.63;100.00;100084.78;5172925;28;20117;-79
2022/09/18 02:53:09;;;;;;;;;;;;;;;10.61;100.00;100077.91;5180808;28;20272;-79
2022/09/18 02:55:45;;;;;;;11.65;1.80;;;;;;;10.57;100.00;100074.59;5189773;28;20260;-79
2022/09/18 02:58:31;;;;;;;9.10;1.33;;;;;;;10.49;100.00;100079.28;5153719;28;20115;-78
2022/09/18 03:01:04;;;;;;;14.23;1.70;;;;;;;10.46;100.00;100076.81;5171328;28;20534;-79
2022/09/18 03:03:37;;;;;;;8.45;1.40;;;;;;;10.51;100.00;100079.25;5174530;28;20029;-79
2022/09/18 03:06:08;;;;;;;9.82;1.55;;;;;;;10.53;100.00;100074.78;5172636;28;20317;-79
2022/09/18 03:08:38;;;;;;;13.77;1.77;;;;;;;10.58;100.00;100070.22;5172973;28;20029;-79
2022/09/18 03:11:09;;;;;;;9.55;1.20;;;;;;;10.52;100.00;100068.69;5174923;28;20033;-79
2022/09/18 03:13:39;;;;;;;12.73;1.45;;;;;;;10.59;100.00;100069.28;5186895;28;20490;-79
2022/09/18 03:16:09;;;;;;;11.68;1.50;;;;;;;10.50;100.00;100073.16;5169912;28;20023;-78
2022/09/18 03:18:39;;;;;;;7.30;1.35;;;;;;;10.52;100.00;100073.09;5170423;28;20175;-79
2022/09/18 03:21:10;;;;;;;9.38;1.23;;;;;;;10.53;100.00;100075.63;5172862;28;20045;-79
2022/09/18 03:23:40;;;;;;;5.78;1.27;;;;;;;10.58;100.00;100076.28;5189684;28;20108;-79
2022/09/18 03:26:10;;;;;;;11.30;1.63;;;;;;;10.50;100.00;100074.94;5189778;28;20040;-78
2022/09/18 03:28:41;;;;;;;10.85;1.33;;;;;;;10.42;100.00;100074.41;5175999;28;20462;-79
2022/09/18 03:31:11;;;;;;;13.90;2.08;;;;;;;10.30;100.00;100070.53;5175587;28;20137;-79
2022/09/18 03:33:42;;;;;;;9.65;1.45;;;;;;;10.47;100.00;100078.50;5178047;28;20032;-79
2022/09/18 03:36:12;;;;;;;9.48;1.27;;;;;;;10.35;100.00;100072.97;5175474;28;20059;-79
2022/09/18 03:38:42;;;;;;;9.25;1.50;;;;;;;10.45;100.00;100079.47;5176703;28;20060;-79
2022/09/18 03:41:13;;;;;;;14.32;1.38;;;;;;;10.43;100.00;100081.31;5180014;28;20060;-79
2022/09/18 03:43:43;;;;;;;9.32;1.25;;;;;;;10.45;100.00;100076.88;5197229;28;20056;-79
2022/09/18 03:46:14;;;;;;;10.90;1.77;;;;;;;10.42;100.00;100066.56;5176621;28;20026;-79
2022/09/18 03:48:44;;;;;;;9.52;1.50;;;;;;;10.52;100.00;100071.31;5175394;28;20290;-79
2022/09/18 03:51:14;;;;;;;8.90;1.40;;;;;;;10.44;100.00;100072.56;5178231;28;20465;-79
2022/09/18 03:53:45;;;;;;;8.23;1.30;;;;;;;10.39;100.00;100070.16;5191827;28;20089;-79
2022/09/18 03:56:16;;;;;;;10.13;1.45;;;;;;;10.40;100.00;100064.03;5182881;28;20030;-76
2022/09/18 03:58:46;;;;;;;8.23;1.40;;;;;;;10.48;100.00;100076.75;5174840;28;20045;-77
2022/09/18 04:01:17;;;;;;;7.93;1.17;;;;;;;10.46;100.00;100075.94;5177086;28;20041;-77
2022/09/18 04:03:48;;;;;;;6.32;0.98;;;;;;;10.43;100.00;100074.34;5174167;28;20549;-78
2022/09/18 04:06:18;;;;;;;9.95;1.50;;;;;;;10.33;100.00;100074.81;5176366;28;20033;-79
2022/09/18 04:08:49;;;;;;;6.68;0.90;;;;;;;10.36;100.00;100069.44;5173300;28;20076;-79
2022/09/18 04:11:19;;;;;;;8.90;1.52;;;;;;;10.36;100.00;100072.06;5180617;28;20045;-78
2022/09/18 04:13:49;;;;;;;8.32;1.20;;;;;;;10.35;100.00;100067.75;5195212;28;20022;-79
2022/09/18 04:16:20;;;;;;;8.73;1.02;;;;;;;10.27;100.00;100069.81;5171642;28;20038;-79
2022/09/18 04:18:50;;;;;;;6.25;1.08;;;;;;;10.28;100.00;100066.28;5173573;28;20340;-78
2022/09/18 04:21:20;;;;;;;8.27;1.00;;;;;;;10.31;100.00;100072.25;5173209;28;20030;-78
2022/09/18 04:23:51;;;;;;;7.80;1.20;;;;;;;10.34;100.00;100081.72;5190892;28;20061;-79
2022/09/18 04:26:21;;;;;;;9.82;1.60;;;;;;;10.25;100.00;100085.56;5189885;28;20031;-79
2022/09/18 04:28:51;;;;;;;9.52;1.27;;;;;;;10.31;100.00;100071.41;5174268;28;20041;-79
2022/09/18 04:31:22;;;;;;;6.93;1.27;;;;;;;10.40;100.00;100086.69;5173598;28;20671;-79
2022/09/18 04:33:52;;;;;;;6.15;1.33;;;;;;;10.25;100.00;100084.72;5175558;28;20030;-78
2022/09/18 04:36:23;;;;;;;7.20;1.30;;;;;;;10.34;100.00;100086.94;5172658;28;20554;-79
2022/09/18 04:38:53;;;;;;;8.73;1.30;;;;;;;10.29;100.00;100083.66;5172783;28;20265;-78
2022/09/18 04:41:24;;;;;;;9.43;1.40;;;;;;;10.32;100.00;100078.34;5177024;28;20232;-78
2022/09/18 04:43:54;;;;;;;10.07;1.05;;;;;;;10.25;100.00;100079.47;5190926;28;20080;-79
2022/09/18 04:46:24;;;;;;;8.82;1.10;;;;;;;10.13;100.00;100080.03;5170339;28;20090;-78
2022/09/18 04:48:54;;;;;;;9.23;1.38;;;;;;;10.16;100.00;100078.09;5173443;28;20033;-78
2022/09/18 04:51:25;;;;;;;5.72;1.30;;;;;;;10.20;100.00;100073.63;5172243;28;20033;-79
2022/09/18 04:53:55;;;;;;;12.57;1.50;;;;;;;10.13;100.00;100073.03;5192772;28;20021;-78
2022/09/18 04:56:26;;;;;;;10.18;1.25;;;;;;;10.14;100.00;100074.72;5185014;28;20123;-79
2022/09/18 04:58:58;;;;;;;6.90;1.27;;;;;;;10.03;100.00;100076.91;5170958;28;20022;-78
2022/09/18 05:01:29;;;;;;;7.63;1.48;;;;;;;10.06;100.00;100070.72;5171792;28;20026;-78
2022/09/18 05:04:00;;;;;;;8.05;1.52;;;;;;;10.00;100.00;100069.19;5175386;28;20241;-78
2022/09/18 05:06:30;;;;;;;11.38;1.30;;;;;;;10.03;100.00;100060.41;5168980;28;20149;-78
2022/09/18 05:09:00;;;;;;;6.47;1.58;;;;;;;10.12;100.00;100070.47;5174719;28;20125;-79
2022/09/18 05:11:30;;;;;;;10.10;1.50;;;;;;;10.01;100.00;100073.50;5180036;28;20112;-79
2022/09/18 05:14:01;;;;;;;6.30;1.30;;;;;;;10.03;100.00;100065.63;5192245;28;20034;-78
2022/09/18 05:16:31;;;;;;;13.68;1.60;;;;;;;10.11;100.00;100071.38;5171576;28;20022;-76
2022/09/18 05:19:02;;;;;;;9.10;1.38;;;;;;;10.06;100.00;100073.34;5174763;28;20041;-79
2022/09/18 05:21:32;;;;;;;12.95;1.67;;;;;;;10.17;100.00;100065.91;5173891;28;20026;-79
2022/09/18 05:24:02;;;;;;;10.52;1.27;;;;;;;10.19;100.00;100069.31;5192519;28;20030;-79
2022/09/18 05:26:34;;;;;;;10.00;1.40;;;;;;;10.32;100.00;100065.28;5181319;28;20026;-78
2022/09/18 05:29:04;;;;;;;10.13;1.23;;;;;;;10.44;100.00;100072.56;5172402;28;20090;-79
2022/09/18 05:31:34;;;;;;;9.18;1.40;;;;;;;10.39;100.00;100074.53;5175562;28;20444;-79
2022/09/18 05:34:05;;;;;;;8.50;1.50;;;;;;;10.42;100.00;100069.16;5173398;28;20084;-77
2022/09/18 05:36:35;;;;;;;10.48;1.80;;;;;;;10.28;100.00;100071.50;5173050;28;20221;-75
2022/09/18 05:39:05;;;;;;;9.77;1.70;;;;;;;10.43;100.00;100069.13;5172381;28;20598;-77
2022/09/18 05:41:36;;;;;;;10.70;1.50;;;;;;;10.46;100.00;100074.19;5180345;28;20116;-79
2022/09/18 05:44:06;;;;;;;14.20;1.60;;;;;;;10.47;100.00;100068.06;5175248;28;20096;-77
2022/09/18 05:46:36;;;;;;;9.80;1.67;;;;;;;10.29;100.00;100068.00;5173098;28;20040;-76
2022/09/18 05:49:07;;;;;;;6.38;1.52;;;;;;;10.52;100.00;100070.47;5171941;28;20038;-78
2022/09/18 05:51:37;;;;;;;6.20;1.45;;;;;;;10.43;100.00;100074.34;5174487;28;20403;-79
2022/09/18 05:54:08;;;;;;;9.32;1.65;;;;;;;10.46;100.00;100075.94;5187693;28;20029;-79
2022/09/18 05:56:38;;;;;;;7.50;1.75;;;;;;;10.49;100.00;100079.28;5181487;28;20025;-79
2022/09/18 05:59:08;;;;;;;9.10;1.40;;;;;;;10.51;100.00;100079.25;5183777;28;20393;-78
2022/09/18 06:01:39;;;;;;;10.10;1.70;;;;;;;10.64;100.00;100078.63;5172817;28;20179;-79
2022/09/18 06:04:09;;;;;;;9.30;1.70;;;;;;;10.66;100.00;100073.34;5173490;28;20039;-79
2022/09/18 06:06:40;;;;;;;10.02;1.60;;;;;;;10.77;100.00;100074.56;5172528;28;20026;-79
2022/09/18 06:09:10;;;;;;;9.13;1.45;;;;;;;10.78;100.00;100072.78;5173575;28;20037;-79
2022/09/18 06:11:40;;;;;;;6.97;1.27;;;;;;;10.67;100.00;100070.66;5173484;28;20026;-78
2022/09/18 06:14:11;;;;;;;9.27;1.40;;;;;;;10.82;100.00;100067.38;5172887;28;20037;-78
2022/09/18 06:16:41;;;;;;;8.80;1.23;;;;;;;10.89;100.00;100070.56;5171308;28;20494;-79
2022/09/18 06:19:12;;;;;;;8.98;1.45;;;;;;;10.87;100.00;100065.38;5175361;28;20060;-78
2022/09/18 06:21:42;;;;;;;9.93;1.50;;;;;;;10.93;100.00;100072.09;5174850;28;20017;-78
2022/09/18 06:24:12;;;;;;;10.70;1.45;;;;;;;11.15;100.00;100069.31;5184579;28;20053;-78
2022/09/18 06:26:43;;;;;;;12.05;1.55;;;;;;;11.20;100.00;100072.56;5178772;28;20125;-78
2022/09/18 06:29:13;;;;;;;10.90;1.33;;;;;;;11.18;100.00;100082.25;5186346;28;20815;-78
2022/09/18 06:31:43;;;;;;;8.45;1.42;;;;;;;11.20;100.00;100064.72;5172799;28;20030;-79
2022/09/18 06:34:13;;;;;;;7.07;1.70;;;;;;;11.12;100.00;100068.59;5194711;22;20333;-72
2022/09/18 06:36:44;;;;;;;7.88;1.33;;;;;;;11.23;100.00;100071.56;5164417;28;20133;-73
2022/09/18 06:39:14;;;;;;;7.07;1.50;;;;;;;11.29;100.00;100061.66;5168345;28;20518;-73
2022/09/18 06:41:44;;;;;;;11.23;1.50;;;;;;;11.38;100.00;100066.47;5169613;28;20097;-73
2022/09/18 06:44:14;;;;;;;8.48;1.45;;;;;;;11.59;100.00;100060.25;5165099;28;20030;-72
2022/09/18 06:46:45;;;;;;;8.82;1.20;;;;;;;11.84;100.00;100065.16;5166378;28;20025;-73
2022/09/18 06:49:15;;;;;;;9.65;1.45;;;;;;;11.75;100.00;100071.69;5168168;28;20480;-74
2022/09/18 06:51:47;;;;;;;5.43;1.20;;;;;;;11.75;100.00;100071.69;5167760;28;20033;-73
2022/09/18 06:54:17;;;;;;;7.60;1.30;;;;;;;11.91;100.00;100067.41;5184565;28;20491;-74
2022/09/18 06:56:48;;;;;;;7.13;1.13;;;;;;;11.80;100.00;100072.28;5174409;28;20100;-72
2022/09/18 06:59:18;;;;;;;7.07;1.30;;;;;;;11.87;100.00;100073.72;5187581;28;20096;-73
2022/09/18 07:01:48;;;;;;;10.25;1.52;;;;;;;12.02;100.00;100079.97;5166465;28;20438;-74
2022/09/18 07:04:19;;;;;;;5.47;1.05;;;;;;;11.99;100.00;100073.09;5171954;28;20049;-72
2022/09/18 07:06:49;;;;;;;12.60;1.10;;;;;;;12.09;100.00;100076.97;5167495;28;20034;-73
2022/09/18 07:09:19;;;;;;;5.38;1.00;;;;;;;12.29;99.88;100071.56;5165767;28;20038;-72
2022/09/18 07:11:49;;;;;;;5.88;1.20;;;;;;;13.87;90.65;100069.06;5168148;28;20037;-72
2022/09/18 07:14:20;;;;;;;5.13;1.10;;;;;;;14.98;85.96;100061.44;5175984;28;20033;-73
2022/09/18 07:16:50;;;;;;;4.80;1.08;;;;;;;16.38;80.27;100053.16;5170815;28;20057;-73
2022/09/18 07:19:21;;;;;;;5.22;1.15;;;;;;;16.61;78.55;100060.38;5175402;28;20451;-73
2022/09/18 07:21:51;;;;;;;6.07;1.25;;;;;;;17.25;76.72;100058.44;5173923;28;20161;-74
2022/09/18 07:24:21;;;;;;;4.85;1.02;;;;;;;16.88;76.43;100055.81;5178662;28;20026;-72
2022/09/18 07:26:52;;;;;;;8.85;1.60;;;;;;;16.91;75.86;100060.88;5175581;28;20040;-72
2022/09/18 07:29:22;;;;;;;7.68;1.30;;;;;;;16.52;76.55;100065.44;5185547;28;20084;-72
2022/09/18 07:31:52;;;;;;;7.93;1.20;;;;;;;17.24;76.03;100050.59;5175964;28;20033;-71
2022/09/18 07:34:23;;;;;;;8.27;1.63;;;;;;;17.49;75.75;100054.06;5177030;28;20038;-71
2022/09/18 07:36:53;;;;;;;5.78;1.23;;;;;;;18.55;73.24;100065.50;5174539;28;20471;-73
2022/09/18 07:39:24;;;;;;;8.15;1.67;;;;;;;16.07;79.17;100058.75;5166547;28;20027;-73
2022/09/18 07:41:54;;;;;;;6.25;1.30;;;;;;;15.14;83.56;100066.59;5170449;28;20031;-73
2022/09/18 07:44:26;;;;;;;9.18;1.77;;;;;;;15.11;84.66;100072.91;5175806;28;20026;-73
2022/09/18 07:46:56;;;;;;;6.82;1.30;;;;;;;15.70;82.43;100069.19;5173985;28;20030;-73
2022/09/18 07:49:26;;;;;;;7.45;1.30;;;;;;;17.26;76.73;100069.81;5166256;28;20037;-73
2022/09/18 07:51:57;;;;;;;5.80;1.02;;;;;;;17.60;75.96;100071.78;5170169;28;20105;-72
2022/09/18 07:54:28;;;;;;;7.32;1.13;;;;;;;17.89;73.93;100058.16;5188008;28;20042;-73
2022/09/18 07:56:59;;;;;;;5.88;1.00;;;;;;;17.11;76.04;100065.66;5176953;28;20035;-73
2022/09/18 07:59:29;;;;;;;4.80;1.23;;;;;;;18.10;72.48;100055.69;5187305;28;20147;-74
2022/09/18 08:01:59;;;;;;;6.07;1.35;;;;;;;18.40;72.68;100058.72;5170074;28;20033;-74
2022/09/18 08:04:30;;;;;;;7.33;1.40;;;;;;;18.54;71.93;100053.25;5164278;28;20034;-73
2022/09/18 08:07:03;;;;;;;6.22;1.30;;;;;;;19.25;69.71;100052.03;5169913;28;20283;-74
2022/09/18 08:09:33;;;;;;;5.78;1.15;;;;;;;18.93;68.97;100051.84;5172080;28;20036;-74
2022/09/18 08:12:03;;;;;;;6.00;1.17;;;;;;;19.53;69.25;100047.03;5175407;28;20440;-74
2022/09/18 08:14:34;;;;;;;5.55;1.20;;;;;;;19.93;69.18;100050.78;5172740;28;20587;-74
2022/09/18 08:17:04;;;;;;;6.27;1.20;;;;;;;18.90;69.76;100052.09;5168917;28;20817;-73
2022/09/18 08:19:34;;;;;;;6.47;1.10;;;;;;;17.90;73.10;100056.34;5174350;28;20288;-73
2022/09/18 08:22:05;;;;;;;4.72;1.10;;;;;;;16.58;77.08;100062.38;5169311;28;20057;-74
2022/09/18 08:24:35;;;;;;;6.75;1.20;;;;;;;15.55;80.91;100059.63;5192198;28;20029;-73
2022/09/18 08:27:05;;;;;;;7.70;1.30;;;;;;;14.98;83.22;100063.25;5176002;28;20037;-73
2022/09/18 08:29:35;;;;;;;8.32;1.48;;;;;;;15.05;84.04;100064.56;5178141;28;20033;-73
2022/09/18 08:32:06;;;;;;;8.65;1.17;;;;;;;14.63;86.11;100061.06;5169722;28;20488;-72
2022/09/18 08:34:36;;;;;;;6.47;1.38;;;;;;;15.04;85.34;100055.78;5171207;28;20022;-72
2022/09/18 08:37:06;;;;;;;6.90;1.27;;;;;;;15.37;83.85;100053.72;5175032;28;20033;-73
2022/09/18 08:39:37;;;;;;;5.20;1.02;;;;;;;15.13;83.50;100051.75;5171313;28;20041;-72
2022/09/18 08:42:19;;;;;;;8.90;1.70;;;;;;;15.10;84.59;100058.06;5172010;28;20033;-72
2022/09/18 08:45:25;;;;;;;4.75;1.00;;;;;;;15.33;85.68;100046.97;5179624;28;20018;-72
2022/09/18 08:48:03;;;;;;;5.10;1.30;;;;;;;16.00;83.71;100033.75;5172244;28;20270;-72
2022/09/18 08:50:38;;;;;;;8.32;1.27;;;;;;;14.80;85.93;100040.66;5167827;28;20030;-73
2022/09/18 08:53:19;;;;;;;8.43;1.42;;;;;;;14.53;91.29;100054.66;5176368;28;20614;-73
2022/09/18 08:55:51;;;;;;;5.20;1.30;;;;;;;13.91;96.54;100050.41;5172142;28;20057;-72
2022/09/18 08:58:32;;;;;;;9.15;1.35;;;;;;;13.52;100.00;100062.31;5182933;28;20041;-72
2022/09/18 09:01:08;;;;;;;6.15;1.15;;;;;;;13.27;100.00;100051.50;5175568;28;20498;-73
2022/09/18 09:03:53;;;;;;;6.38;1.35;;;;;;;13.28;100.00;100064.53;5169282;28;20388;-73
2022/09/18 09:06:38;;;;;;;9.70;1.85;;;;;;;13.06;100.00;100058.72;5165742;28;20503;-73
2022/09/18 09:09:30;;;;;;;4.32;1.02;;;;;;;13.02;100.00;100061.59;5172918;28;20045;-72
2022/09/18 09:12:01;;;;;;;10.43;1.10;;;;;;;12.87;100.00;100054.53;5164611;28;20465;-72
2022/09/18 09:15:06;;;;;;;5.33;1.00;;;;;;;12.64;100.00;100060.13;5166939;28;20032;-73
2022/09/18 09:17:45;;;;;;;5.35;1.02;;;;;;;13.03;100.00;100058.06;5160901;28;20329;-73
2022/09/18 09:20:21;;;;;;;4.43;0.80;;;;;;;12.82;100.00;100058.34;5166554;28;20037;-73
2022/09/18 09:23:01;;;;;;;4.50;0.90;;;;;;;12.95;100.00;100054.16;5174814;28;20057;-73
2022/09/18 09:25:38;;;;;;;6.80;1.00;;;;;;;13.21;100.00;100049.22;5183534;28;20480;-72
2022/09/18 09:28:16;;;;;;;4.63;0.80;;;;;;;13.12;100.00;100044.44;5178220;28;20065;-73
2022/09/18 09:30:51;;;;;;;2.90;0.75;;;;;;;13.13;100.00;100054.00;5175546;28;20117;-72
2022/09/18 09:33:38;;;;;;;4.13;0.82;;;;;;;13.41;100.00;100046.34;5165670;28;20026;-72
2022/09/18 09:36:13;;;;;;;6.93;1.20;;;;;;;13.63;100.00;100044.19;5164718;28;20545;-73
2022/09/18 09:38:49;;;;;;;6.35;1.20;;;;;;;13.84;100.00;100038.56;5170690;28;20084;-73
2022/09/18 09:41:33;;;;;;;5.45;0.80;;;;;;;13.74;100.00;100045.28;5162409;28;20053;-73
2022/09/18 09:44:26;;;;;;;4.82;0.93;;;;;;;13.76;100.00;100050.44;5167508;28;20045;-72
2022/09/18 09:47:11;;;;;;;4.85;0.98;;;;;;;13.95;100.00;100045.84;5168206;28;20036;-73
2022/09/18 09:49:55;;;;;;;6.80;0.90;;;;;;;14.60;98.64;100037.56;5169575;28;20578;-73
2022/09/18 09:52:28;;;;;;;6.10;1.00;;;;;;;14.25;98.33;100029.16;5168455;28;20056;-73
2022/09/18 09:55:20;;;;;;;4.60;0.90;;;;;;;13.91;97.87;100031.19;5177986;28;20492;-73
2022/09/18 09:58:09;;;;;;;3.30;0.60;;;;;;;13.85;99.00;100013.13;5173538;28;20115;-72
2022/09/18 10:00:55;;;;;;;5.20;1.02;;;;;;;13.71;100.00;100016.56;5172713;28;20029;-72
2022/09/18 10:03:41;;;;;;;;;;;;;;;13.47;98.56;100024.97;5171393;28;20030;-72
2022/09/18 10:06:25;;;;;;;4.35;0.85;;;;;;;13.54;99.58;100026.34;5168075;28;19917;-71
2022/09/18 10:09:10;;;;;;;5.88;0.90;;;;;;;13.47;98.89;100030.22;5164156;28;20030;-72
2022/09/18 10:11:47;;;;;;;3.17;0.85;;;;;;;13.61;99.43;100020.63;5168697;28;20296;-72
2022/09/18 10:14:23;;;;;;;4.30;0.70;;;;;;;13.73;99.61;100030.44;5169317;28;20084;-72
2022/09/18 10:16:56;;;;;;;7.85;1.10;;;;;;;14.30;97.13;100027.13;5165489;28;20036;-73
2022/09/18 10:19:34;;;;;;;8.55;1.02;;;;;;;14.54;96.95;100022.16;5164741;28;20203;-72
2022/09/18 10:22:06;;;;;;;4.50;1.00;;;;;;;14.35;96.25;100026.81;5159768;28;20034;-72
2022/09/18 10:25:01;;;;;;;6.97;0.93;;;;;;;14.50;97.53;100015.38;5170909;28;20026;-72
2022/09/18 10:27:31;;;;;;;7.05;1.00;;;;;;;15.27;96.42;100015.75;5170790;28;20288;-72
2022/09/18 10:30:12;;;;;;;6.05;1.23;;;;;;;15.14;93.01;100001.66;5165652;28;20594;-72
2022/09/18 10:32:43;;;;;;;3.97;1.00;;;;;;;15.23;91.86;100006.34;5166152;28;20093;-72
2022/09/18 10:35:33;;;;;;;4.85;1.10;;;;;;;15.14;91.10;99998.16;5161916;28;20417;-72
2022/09/18 10:38:25;;;;;;;2.15;0.70;;;;;;;14.66;91.04;100003.88;5163217;28;20077;-72
2022/09/18 10:41:10;;;;;;;4.20;0.80;;;;;;;14.35;91.78;99992.66;5170397;28;20084;-72
2022/09/18 10:43:53;;;;;;;3.08;0.80;;;;;;;14.38;91.20;99990.69;5168025;28;20065;-72
2022/09/18 10:46:26;;;;;;;3.67;0.93;;;;;;;14.48;91.08;99988.34;5164447;28;20054;-72
2022/09/18 10:49:01;;;;;;;3.13;0.63;;;;;;;14.82;90.44;99973.03;5165673;28;20511;-73
2022/09/18 10:51:31;;;;;;;5.45;0.82;;;;;;;14.70;89.89;99973.78;5164987;28;20145;-71
2022/09/18 10:54:30;;;;;;;4.35;0.77;;;;;;;14.34;88.99;99975.19;5178006;28;20442;-71
2022/09/18 10:57:24;;;;;;;6.30;0.80;;;;;;;14.50;90.19;99973.31;5163303;28;20038;-72
2022/09/18 10:59:54;;;;;;;2.97;0.70;;;;;;;14.49;89.49;99977.75;5168755;28;20514;-72
2022/09/18 11:02:29;;;;;;;5.50;0.80;;;;;;;14.72;89.03;99973.69;5171334;28;20033;-72
2022/09/18 11:05:01;;;;;;;3.47;0.73;;;;;;;15.07;89.49;99965.28;5173541;28;20037;-72
2022/09/18 11:07:33;;;;;;;3.95;0.73;;;;;;;15.19;88.97;99970.59;5163415;28;20719;-73
2022/09/18 11:10:07;;;;;;;3.22;0.80;;;;;;;15.02;88.23;99970.84;5172204;28;20045;-72
2022/09/18 11:12:46;;;;;;;4.18;0.75;;;;;;;15.13;88.69;99963.09;5166802;28;20469;-72
2022/09/18 11:15:19;;;;;;;5.53;0.80;;;;;;;15.03;86.97;99963.78;5171558;28;20044;-72
2022/09/18 11:17:52;;;;;;;2.40;0.43;;;;;;;14.82;86.41;99962.53;5167568;28;20030;-72
2022/09/18 11:20:29;;;;;;;6.07;1.02;;;;;;;14.78;85.82;99975.94;5165108;28;20046;-72
2022/09/18 11:23:17;;;;;;;5.97;0.93;;;;;;;14.67;85.08;99967.88;5173568;28;20403;-72
2022/09/18 11:25:48;;;;;;;5.32;1.02;;;;;;;14.66;84.25;99974.06;5175717;28;20045;-72
2022/09/18 11:28:28;;;;;;;2.40;0.63;;;;;;;14.82;85.05;99964.28;5176705;28;20041;-72
2022/09/18 11:31:03;;;;;;;3.17;0.60;;;;;;;14.75;85.28;99955.09;5173511;28;20050;-72
2022/09/18 11:33:46;;;;;;;3.30;0.60;;;;;;;14.82;85.83;99958.09;5162073;28;20030;-71
2022/09/18 11:36:24;;;;;;;2.33;0.57;;;;;;;14.90;86.63;99962.88;5163276;28;20071;-72
2022/09/18 11:38:57;;;;;;;2.58;0.63;;;;;;;14.74;85.44;99948.16;5165245;28;20065;-73
2022/09/18 11:41:35;;;;;;;3.58;0.55;;;;;;;14.38;84.69;99959.13;5162529;28;20128;-72
2022/09/18 11:44:20;;;;;;;2.78;0.60;;;;;;;14.19;83.93;99960.31;5173576;28;20044;-71
2022/09/18 11:47:26;;;;;;;7.35;0.68;;;;;;;14.10;85.34;99942.47;5170252;28;20041;-72
2022/09/18 11:50:20;;;;;;;2.33;0.50;;;;;;;14.08;85.14;99955.69;5171841;28;20040;-71
2022/09/18 11:52:59;;;;;;;1.55;0.43;;;;;;;14.12;86.62;99958.97;5169669;28;20076;-72
2022/09/18 11:55:37;;;;;;;3.20;0.50;;;;;;;13.89;89.06;99962.97;5184141;28;20229;-72